createdAt,value
2024-01-31T00:00:55.363Z,8.53
2024-01-31T00:03:28.977Z,8.46
2024-01-31T00:06:02.078Z,8.49
2024-01-31T00:08:35.393Z,8.46
2024-01-31T00:11:10.242Z,8.35
2024-01-31T00:13:44.939Z,8.37
2024-01-31T00:16:18.236Z,8.44
2024-01-31T00:18:52.203Z,8.48
2024-01-31T00:21:26.977Z,8.45
2024-01-31T00:24:01.600Z,8.49
2024-01-31T00:26:34.740Z,8.48
2024-01-31T00:29:09.370Z,8.62
2024-01-31T00:31:42.642Z,8.77
2024-01-31T00:34:15.931Z,8.73
2024-01-31T00:36:51.581Z,8.62
2024-01-31T00:39:29.365Z,8.50
2024-01-31T00:42:02.586Z,8.55
2024-01-31T00:44:37.207Z,8.52
2024-01-31T00:47:10.736Z,8.59
2024-01-31T00:49:44.141Z,8.60
2024-01-31T00:52:18.423Z,8.63
2024-01-31T00:54:54.056Z,8.68
2024-01-31T00:57:27.199Z,8.66
2024-01-31T01:00:03.176Z,8.73
2024-01-31T01:02:37.414Z,8.76
2024-01-31T01:05:11.431Z,8.73
2024-01-31T01:07:46.899Z,8.68
2024-01-31T01:10:21.016Z,8.60
2024-01-31T01:12:54.211Z,8.60
2024-01-31T01:15:28.872Z,8.55
2024-01-31T01:18:02.049Z,8.55
2024-01-31T01:20:35.357Z,8.50
2024-01-31T01:23:08.808Z,8.42
2024-01-31T01:25:42.041Z,8.49
2024-01-31T01:28:15.204Z,8.59
2024-01-31T01:30:50.072Z,8.63
2024-01-31T01:33:23.385Z,8.68
2024-01-31T01:35:56.720Z,8.62
2024-01-31T01:38:30.032Z,8.58
2024-01-31T01:41:03.455Z,8.62
2024-01-31T01:43:36.673Z,8.62
2024-01-31T01:46:15.189Z,8.60
2024-01-31T01:48:50.194Z,8.55
2024-01-31T01:51:24.690Z,8.52
2024-01-31T01:53:58.098Z,8.56
2024-01-31T01:56:33.132Z,8.53
2024-01-31T01:59:06.438Z,8.58
2024-01-31T02:01:44.302Z,8.56
2024-01-31T02:04:19.795Z,8.44
2024-01-31T02:06:53.844Z,8.37
2024-01-31T02:09:28.009Z,8.41
2024-01-31T02:12:01.273Z,8.37
2024-01-31T02:14:34.504Z,8.32
2024-01-31T02:17:11.098Z,8.28
2024-01-31T02:19:44.451Z,8.22
2024-01-31T02:22:20.335Z,8.32
2024-01-31T02:24:53.622Z,8.27
2024-01-31T02:27:26.754Z,8.27
2024-01-31T02:29:59.948Z,8.35
2024-01-31T02:32:36.055Z,8.45
2024-01-31T02:35:09.500Z,8.41
2024-01-31T02:37:45.712Z,8.58
2024-01-31T02:40:19.134Z,8.65
2024-01-31T02:42:52.401Z,8.75
2024-01-31T02:45:25.837Z,8.66
2024-01-31T02:47:59.151Z,8.63
2024-01-31T02:50:32.901Z,8.69
2024-01-31T02:53:07.823Z,8.62
2024-01-31T02:55:40.984Z,8.42
2024-01-31T02:58:14.277Z,8.48
2024-01-31T03:00:47.468Z,8.32
2024-01-31T03:03:20.703Z,8.28
2024-01-31T03:05:53.930Z,8.25
2024-01-31T03:08:28.803Z,8.34
2024-01-31T03:11:02.014Z,8.42
2024-01-31T03:13:35.325Z,8.55
2024-01-31T03:16:08.655Z,8.49
2024-01-31T03:18:42.516Z,8.65
2024-01-31T03:21:15.970Z,8.76
2024-01-31T03:23:50.514Z,8.83
2024-01-31T03:26:23.720Z,8.66
2024-01-31T03:28:56.926Z,8.68
2024-01-31T03:31:30.266Z,8.66
2024-01-31T03:34:03.613Z,8.83
2024-01-31T03:36:37.258Z,8.86
2024-01-31T03:39:11.914Z,8.89
2024-01-31T03:41:46.333Z,8.73
2024-01-31T03:44:19.493Z,8.68
2024-01-31T03:46:52.580Z,8.56
2024-01-31T03:49:25.843Z,8.55
2024-01-31T03:51:59.075Z,8.53
2024-01-31T03:54:33.693Z,8.73
2024-01-31T03:57:07.441Z,8.83
2024-01-31T03:59:40.629Z,8.72
2024-01-31T04:02:13.838Z,8.82
2024-01-31T04:04:47.141Z,8.79
2024-01-31T04:07:20.510Z,8.89
2024-01-31T04:09:55.095Z,8.79
2024-01-31T04:12:28.530Z,8.79
2024-01-31T04:15:01.882Z,8.83
2024-01-31T04:17:35.140Z,9.06
2024-01-31T04:20:09.815Z,9.16
2024-01-31T04:22:43.123Z,8.92
2024-01-31T04:25:20.289Z,9.02
2024-01-31T04:27:53.421Z,9.06
2024-01-31T04:30:28.215Z,8.83
2024-01-31T04:33:02.905Z,8.69
2024-01-31T04:35:36.178Z,8.70
2024-01-31T04:38:09.536Z,8.65
2024-01-31T04:40:44.140Z,8.69
2024-01-31T04:43:19.183Z,8.76
2024-01-31T04:45:55.798Z,8.73
2024-01-31T04:48:29.019Z,8.73
2024-01-31T04:51:04.577Z,8.79
2024-01-31T04:53:37.784Z,8.79
2024-01-31T04:56:12.483Z,8.87
2024-01-31T04:58:45.694Z,9.04
2024-01-31T05:01:19.228Z,9.06
2024-01-31T05:03:53.245Z,8.89
2024-01-31T05:06:26.557Z,8.72
2024-01-31T05:08:59.737Z,8.56
2024-01-31T05:11:34.245Z,8.60
2024-01-31T05:14:07.404Z,8.46
2024-01-31T05:16:43.807Z,8.53
2024-01-31T05:19:17.447Z,8.50
2024-01-31T05:21:53.357Z,8.76
2024-01-31T05:24:26.514Z,8.76
2024-01-31T05:27:04.664Z,8.60
2024-01-31T05:29:37.926Z,8.49
2024-01-31T05:32:11.078Z,8.46
2024-01-31T05:34:45.738Z,8.49
2024-01-31T05:37:19.117Z,8.52
2024-01-31T05:39:52.295Z,8.53
2024-01-31T05:42:26.872Z,8.65
2024-01-31T05:45:00.065Z,8.70
2024-01-31T05:47:33.271Z,8.76
2024-01-31T05:50:07.541Z,8.65
2024-01-31T05:52:40.889Z,8.68
2024-01-31T05:55:16.562Z,8.65
2024-01-31T05:57:51.604Z,8.59
2024-01-31T06:00:24.946Z,8.53
2024-01-31T06:03:00.444Z,8.60
2024-01-31T06:05:34.629Z,8.62
2024-01-31T06:08:08.655Z,8.55
2024-01-31T06:10:42.000Z,8.50
2024-01-31T06:13:16.635Z,8.49
2024-01-31T06:15:49.838Z,8.53
2024-01-31T06:18:24.110Z,8.66
2024-01-31T06:20:57.376Z,8.60
2024-01-31T06:23:30.821Z,8.55
2024-01-31T06:26:04.351Z,8.69
2024-01-31T06:28:40.216Z,8.75
2024-01-31T06:31:25.435Z,8.66
2024-01-31T06:33:58.840Z,8.50
2024-01-31T06:36:32.001Z,8.70
2024-01-31T06:39:06.110Z,8.70
2024-01-31T06:41:39.582Z,8.68
2024-01-31T06:44:14.096Z,8.63
2024-01-31T06:46:50.308Z,8.63
2024-01-31T06:49:25.826Z,8.58
2024-01-31T06:51:59.248Z,8.56
2024-01-31T06:54:32.444Z,8.66
2024-01-31T06:57:05.940Z,8.52
2024-01-31T06:59:40.562Z,8.70
2024-01-31T07:02:13.810Z,8.63
2024-01-31T07:04:49.585Z,8.55
2024-01-31T07:07:22.923Z,8.58
2024-01-31T07:09:56.221Z,8.59
2024-01-31T07:12:29.494Z,8.56
2024-01-31T07:15:04.447Z,8.63
2024-01-31T07:17:37.825Z,8.59
2024-01-31T07:20:12.024Z,8.59
2024-01-31T07:22:45.447Z,8.56
2024-01-31T07:25:19.000Z,8.66
2024-01-31T07:27:52.191Z,8.69
2024-01-31T07:30:26.700Z,8.68
2024-01-31T07:32:59.894Z,8.69
2024-01-31T07:35:33.072Z,8.60
2024-01-31T07:38:06.504Z,8.62
2024-01-31T07:40:40.402Z,8.48
2024-01-31T07:43:13.618Z,8.56
2024-01-31T07:45:48.186Z,8.48
2024-01-31T07:48:21.452Z,8.48
2024-01-31T07:50:54.708Z,8.48
2024-01-31T07:53:27.841Z,8.42
2024-01-31T07:56:05.061Z,8.53
2024-01-31T07:58:39.980Z,8.53
2024-01-31T08:01:16.247Z,8.53
2024-01-31T08:03:49.827Z,8.45
2024-01-31T08:06:25.405Z,8.42
2024-01-31T08:09:02.291Z,8.35
2024-01-31T08:11:43.894Z,8.28
2024-01-31T08:14:17.596Z,8.28
2024-01-31T08:16:52.628Z,8.25
2024-01-31T08:19:25.971Z,8.31
2024-01-31T08:21:59.183Z,8.37
2024-01-31T08:24:32.369Z,8.41
2024-01-31T08:27:08.581Z,8.45
2024-01-31T08:29:41.792Z,8.53
2024-01-31T08:32:16.339Z,8.45
2024-01-31T08:34:50.034Z,8.42
2024-01-31T08:37:23.362Z,8.38
2024-01-31T08:39:56.539Z,8.38
2024-01-31T08:42:30.662Z,8.37
2024-01-31T08:45:03.924Z,8.39
2024-01-31T08:47:40.711Z,8.38
2024-01-31T08:50:16.378Z,8.41
2024-01-31T08:52:50.090Z,8.49
2024-01-31T08:55:23.844Z,8.63
2024-01-31T08:57:57.219Z,8.72
2024-01-31T09:00:30.867Z,8.76
2024-01-31T09:03:05.608Z,8.79
2024-01-31T09:05:39.002Z,8.80
2024-01-31T09:08:12.247Z,8.75
2024-01-31T09:10:46.328Z,8.72
2024-01-31T09:13:19.680Z,8.70
2024-01-31T09:15:52.926Z,8.68
2024-01-31T09:18:30.268Z,8.70
2024-01-31T09:21:03.457Z,8.76
2024-01-31T09:23:36.606Z,8.82
2024-01-31T09:26:11.622Z,8.93
2024-01-31T09:28:44.944Z,8.93
2024-01-31T09:31:22.695Z,8.97
2024-01-31T09:33:57.658Z,8.96
2024-01-31T09:36:31.445Z,8.97
2024-01-31T09:39:06.980Z,9.03
2024-01-31T09:41:40.304Z,9.11
2024-01-31T09:44:14.268Z,9.09
2024-01-31T09:46:51.577Z,9.04
2024-01-31T09:49:26.686Z,9.04
2024-01-31T09:52:01.942Z,8.94
2024-01-31T09:54:36.404Z,8.84
2024-01-31T09:57:09.800Z,8.86
2024-01-31T09:59:44.014Z,8.96
2024-01-31T10:02:18.284Z,9.20
2024-01-31T10:04:53.073Z,9.30
2024-01-31T10:07:27.260Z,9.40
2024-01-31T10:10:02.589Z,9.30
2024-01-31T10:12:35.876Z,9.26
2024-01-31T10:15:10.797Z,9.26
2024-01-31T10:17:44.013Z,9.24
2024-01-31T10:20:18.870Z,9.30
2024-01-31T10:22:52.098Z,9.37
2024-01-31T10:25:27.159Z,9.28
2024-01-31T10:28:01.349Z,9.38
2024-01-31T10:30:41.693Z,9.38
2024-01-31T10:33:16.010Z,9.37
2024-01-31T10:36:25.198Z,9.41
2024-01-31T10:38:45.973Z,9.44
2024-01-31T10:41:20.628Z,9.43
2024-01-31T10:43:56.249Z,9.44
2024-01-31T10:46:30.060Z,9.37
2024-01-31T10:49:03.416Z,9.48
2024-01-31T10:51:41.237Z,9.65
2024-01-31T10:54:16.353Z,9.61
2024-01-31T10:56:50.983Z,9.48
2024-01-31T10:59:25.015Z,9.34
2024-01-31T11:02:00.193Z,9.19
2024-01-31T11:04:33.614Z,9.11
2024-01-31T11:07:08.476Z,9.09
2024-01-31T11:09:44.193Z,9.10
2024-01-31T11:12:19.114Z,9.20
2024-01-31T11:14:54.053Z,9.24
2024-01-31T11:17:38.207Z,9.10
2024-01-31T11:20:15.549Z,9.02
2024-01-31T11:22:50.070Z,9.04
2024-01-31T11:25:29.429Z,8.97
2024-01-31T11:28:06.413Z,8.89
2024-01-31T11:30:40.853Z,8.89
2024-01-31T11:33:14.206Z,8.87
2024-01-31T11:35:48.139Z,8.73
2024-01-31T11:38:22.857Z,8.73
2024-01-31T11:40:56.429Z,8.75
2024-01-31T11:43:29.786Z,8.73
2024-01-31T11:46:02.964Z,8.60
2024-01-31T11:48:37.150Z,8.59
2024-01-31T11:51:10.516Z,8.68
2024-01-31T11:53:45.115Z,8.68
2024-01-31T11:56:18.520Z,8.80
2024-01-31T11:58:53.596Z,8.86
2024-01-31T12:01:28.037Z,8.84
2024-01-31T12:04:03.233Z,8.73
2024-01-31T12:06:36.444Z,8.73
2024-01-31T12:09:11.027Z,8.70
2024-01-31T12:11:44.246Z,8.44
2024-01-31T12:14:17.596Z,8.50
2024-01-31T12:16:50.712Z,8.65
2024-01-31T12:19:25.067Z,8.69
2024-01-31T12:22:00.570Z,8.60
2024-01-31T12:24:39.518Z,8.63
2024-01-31T12:27:13.237Z,8.70
2024-01-31T12:29:47.794Z,8.75
2024-01-31T12:32:21.073Z,8.73
2024-01-31T12:34:54.738Z,8.70
2024-01-31T12:37:28.062Z,8.82
2024-01-31T12:40:02.614Z,8.86
2024-01-31T12:42:36.525Z,8.63
2024-01-31T12:45:10.867Z,8.62
2024-01-31T12:47:46.812Z,8.76
2024-01-31T12:50:21.869Z,8.87
2024-01-31T12:52:55.597Z,8.92
2024-01-31T12:55:30.153Z,8.90
2024-01-31T12:58:03.499Z,8.82
2024-01-31T13:00:36.664Z,8.94
2024-01-31T13:03:13.077Z,8.87
2024-01-31T13:05:46.871Z,8.66
2024-01-31T13:08:20.251Z,8.59
2024-01-31T13:10:55.305Z,8.63
2024-01-31T13:13:28.418Z,8.66
2024-01-31T13:16:01.649Z,8.70
2024-01-31T13:18:35.138Z,8.66
2024-01-31T13:21:08.817Z,8.75
2024-01-31T13:23:41.345Z,8.72
2024-01-31T13:26:16.316Z,8.68
2024-01-31T13:28:49.478Z,8.65
2024-01-31T13:31:22.560Z,8.53
2024-01-31T13:33:55.792Z,8.46
2024-01-31T13:36:29.278Z,8.42
2024-01-31T13:39:03.881Z,8.50
2024-01-31T13:41:39.853Z,8.49
2024-01-31T13:44:13.116Z,8.37
2024-01-31T13:46:46.284Z,8.24
2024-01-31T13:49:20.185Z,8.35
2024-01-31T13:51:53.518Z,8.37
2024-01-31T13:54:26.750Z,8.41
2024-01-31T13:57:01.808Z,8.45
2024-01-31T13:59:35.876Z,8.55
2024-01-31T14:02:09.187Z,8.59
2024-01-31T14:04:42.330Z,8.63
2024-01-31T14:07:15.541Z,8.53
2024-01-31T14:09:48.829Z,8.42
2024-01-31T14:12:23.481Z,8.58
2024-01-31T14:14:56.923Z,8.52
2024-01-31T14:17:30.152Z,8.56
2024-01-31T14:20:04.708Z,8.52
2024-01-31T14:22:56.548Z,8.58
2024-01-31T14:25:33.976Z,8.72
2024-01-31T14:28:08.601Z,8.75
2024-01-31T14:30:41.859Z,8.82
2024-01-31T14:33:15.235Z,8.79
2024-01-31T14:35:48.674Z,8.76
2024-01-31T14:38:21.949Z,8.94
2024-01-31T14:40:55.069Z,9.04
2024-01-31T14:43:29.846Z,9.16
2024-01-31T14:46:02.910Z,9.19
2024-01-31T14:48:36.177Z,9.19
2024-01-31T14:51:09.790Z,8.72
2024-01-31T14:53:43.013Z,8.53
2024-01-31T14:56:16.206Z,8.48
2024-01-31T14:58:50.893Z,8.35
2024-01-31T15:01:24.121Z,8.41
2024-01-31T15:03:58.885Z,8.58
2024-01-31T15:06:35.255Z,8.60
2024-01-31T15:09:09.315Z,8.60
2024-01-31T15:11:43.502Z,8.49
2024-01-31T15:14:18.074Z,8.56
2024-01-31T15:16:51.189Z,8.68
2024-01-31T15:19:26.956Z,8.63
2024-01-31T15:22:02.572Z,8.60
2024-01-31T15:24:38.250Z,8.50
2024-01-31T15:27:11.952Z,8.42
2024-01-31T15:29:46.737Z,8.20
2024-01-31T15:32:19.897Z,7.98
2024-01-31T15:34:53.777Z,8.05
2024-01-31T15:37:29.361Z,8.08
2024-01-31T15:40:02.676Z,8.01
2024-01-31T15:42:38.029Z,7.98
2024-01-31T15:45:13.353Z,7.98
2024-01-31T15:47:46.626Z,7.97
2024-01-31T15:50:20.952Z,7.95
2024-01-31T15:52:54.166Z,7.99
2024-01-31T15:55:27.361Z,7.99
2024-01-31T15:58:02.879Z,7.97
2024-01-31T16:00:37.554Z,7.95
2024-01-31T16:03:10.885Z,7.93
2024-01-31T16:05:44.534Z,7.94
2024-01-31T16:08:18.121Z,7.93
2024-01-31T16:10:51.518Z,7.90
2024-01-31T16:13:24.710Z,7.85
2024-01-31T16:15:59.271Z,7.84
2024-01-31T16:18:34.421Z,7.77
2024-01-31T16:21:11.790Z,7.70
2024-01-31T16:23:46.227Z,7.70
2024-01-31T16:26:19.399Z,7.69
2024-01-31T16:28:52.641Z,7.64
2024-01-31T16:31:27.169Z,7.59
2024-01-31T16:34:00.460Z,7.47
2024-01-31T16:36:33.655Z,7.29
2024-01-31T16:39:06.989Z,7.39
2024-01-31T16:41:40.555Z,7.33
2024-01-31T16:44:13.738Z,7.26
2024-01-31T16:46:48.339Z,7.24
2024-01-31T16:49:21.557Z,7.22
2024-01-31T16:51:54.780Z,6.99
2024-01-31T16:54:28.108Z,6.84
2024-01-31T16:57:04.354Z,6.82
2024-01-31T16:59:39.923Z,6.65
2024-01-31T17:02:14.567Z,6.54
2024-01-31T17:04:47.776Z,6.42
2024-01-31T17:07:20.986Z,6.21
2024-01-31T17:09:54.216Z,6.09
2024-01-31T17:12:27.462Z,5.89
2024-01-31T17:15:00.800Z,5.80
2024-01-31T17:17:35.760Z,5.62
2024-01-31T17:20:09.709Z,5.69
2024-01-31T17:22:45.193Z,5.77
2024-01-31T17:25:18.600Z,5.97
2024-01-31T17:27:51.879Z,6.00
2024-01-31T17:30:25.225Z,6.14
2024-01-31T17:32:59.880Z,6.18
2024-01-31T17:35:35.035Z,6.31
2024-01-31T17:38:08.196Z,6.33
2024-01-31T17:40:43.431Z,6.33
2024-01-31T17:43:16.649Z,6.26
2024-01-31T17:45:51.362Z,6.28
2024-01-31T17:48:26.263Z,6.21
2024-01-31T17:50:59.532Z,6.13
2024-01-31T17:53:32.723Z,6.23
2024-01-31T17:56:10.366Z,6.36
2024-01-31T17:58:43.471Z,6.52
2024-01-31T18:01:16.905Z,6.69
2024-01-31T18:03:53.830Z,6.74
2024-01-31T18:06:27.098Z,6.79
2024-01-31T18:09:00.464Z,6.81
2024-01-31T18:11:34.698Z,6.85
2024-01-31T18:14:08.177Z,6.79
2024-01-31T18:16:41.604Z,6.82
2024-01-31T18:19:16.254Z,6.87
2024-01-31T18:21:49.478Z,6.79
2024-01-31T18:24:22.736Z,6.85
2024-01-31T18:26:56.010Z,6.88
2024-01-31T18:29:30.479Z,6.89
2024-01-31T18:32:06.112Z,6.93
2024-01-31T18:34:42.050Z,6.96
2024-01-31T18:37:19.222Z,6.98
2024-01-31T18:39:52.449Z,7.06
2024-01-31T18:42:25.714Z,7.13
2024-01-31T18:44:58.897Z,7.15
2024-01-31T18:47:36.954Z,7.19
2024-01-31T18:50:13.303Z,7.12
2024-01-31T18:52:46.458Z,7.15
2024-01-31T18:55:19.617Z,7.18
2024-01-31T18:57:52.775Z,7.19
2024-01-31T19:00:26.044Z,7.26
2024-01-31T19:02:59.493Z,7.33
2024-01-31T19:05:34.164Z,7.39
2024-01-31T19:08:07.874Z,7.44
2024-01-31T19:10:41.479Z,7.50
2024-01-31T19:13:14.870Z,7.47
2024-01-31T19:15:50.322Z,7.44
2024-01-31T19:18:23.929Z,7.59
2024-01-31T19:20:58.590Z,7.53
2024-01-31T19:23:31.776Z,7.49
2024-01-31T19:26:05.196Z,7.62
2024-01-31T19:28:38.308Z,7.62
2024-01-31T19:31:14.125Z,7.62
2024-01-31T19:33:49.541Z,7.60
2024-01-31T19:36:26.029Z,7.63
2024-01-31T19:38:59.177Z,7.56
2024-01-31T19:41:34.777Z,7.52
2024-01-31T19:44:08.310Z,7.43
2024-01-31T19:46:44.672Z,7.40
2024-01-31T19:49:18.000Z,7.46
2024-01-31T19:51:52.873Z,7.49
2024-01-31T19:54:26.833Z,7.46
2024-01-31T19:57:00.073Z,7.46
2024-01-31T19:59:35.140Z,7.53
2024-01-31T20:02:08.659Z,7.53
2024-01-31T20:04:42.231Z,7.56
2024-01-31T20:07:22.899Z,7.62
2024-01-31T20:09:56.498Z,7.59
2024-01-31T20:12:33.595Z,7.71
2024-01-31T20:15:07.611Z,7.76
2024-01-31T20:17:40.947Z,7.71
2024-01-31T20:20:14.302Z,7.73
2024-01-31T20:22:48.866Z,7.80
2024-01-31T20:25:22.029Z,7.84
2024-01-31T20:27:55.265Z,7.87
2024-01-31T20:30:31.892Z,7.93
2024-01-31T20:33:05.765Z,8.02
2024-01-31T20:35:39.025Z,8.07
2024-01-31T20:38:13.585Z,8.14
2024-01-31T20:40:46.705Z,8.14
2024-01-31T20:43:19.992Z,8.21
2024-01-31T20:45:53.282Z,8.15
2024-01-31T20:48:33.479Z,8.22
2024-01-31T20:51:13.628Z,8.21
2024-01-31T20:53:52.873Z,8.15
2024-01-31T20:56:29.041Z,8.27
2024-01-31T20:59:02.570Z,8.14
2024-01-31T21:01:35.783Z,8.20
2024-01-31T21:04:09.152Z,8.22
2024-01-31T21:06:42.605Z,8.24
2024-01-31T21:09:17.215Z,8.25
2024-01-31T21:11:50.430Z,8.28
2024-01-31T21:14:23.626Z,8.39
2024-01-31T21:16:57.840Z,8.32
2024-01-31T21:19:31.179Z,8.34
2024-01-31T21:22:04.511Z,8.38
2024-01-31T21:24:39.102Z,8.42
2024-01-31T21:27:13.741Z,8.45
2024-01-31T21:29:47.076Z,8.48
2024-01-31T21:32:20.304Z,8.52
2024-01-31T21:34:53.595Z,8.52
2024-01-31T21:37:26.774Z,8.49
2024-01-31T21:40:01.343Z,8.55
2024-01-31T21:42:34.478Z,8.55
2024-01-31T21:45:09.774Z,8.53
2024-01-31T21:47:43.096Z,8.58
2024-01-31T21:50:16.593Z,8.59
2024-01-31T21:52:49.829Z,8.65
2024-01-31T21:55:25.729Z,8.62
2024-01-31T21:57:58.973Z,8.62
2024-01-31T22:00:32.180Z,8.60
2024-01-31T22:03:06.101Z,8.50
2024-01-31T22:05:41.744Z,8.49
2024-01-31T22:08:15.223Z,8.55
2024-01-31T22:10:49.764Z,8.50
2024-01-31T22:13:23.345Z,8.52
2024-01-31T22:15:56.874Z,8.63
2024-01-31T22:18:30.158Z,8.63
2024-01-31T22:21:04.530Z,8.58
2024-01-31T22:23:37.800Z,8.58
2024-01-31T22:26:12.509Z,8.56
2024-01-31T22:28:45.783Z,8.62
2024-01-31T22:31:18.931Z,8.66
2024-01-31T22:33:52.241Z,8.73
2024-01-31T22:36:26.206Z,8.76
2024-01-31T22:38:59.478Z,8.79
2024-01-31T22:41:34.730Z,8.79
2024-01-31T22:44:07.890Z,8.87
2024-01-31T22:46:41.044Z,8.97
2024-01-31T22:49:14.409Z,8.99
2024-01-31T22:51:47.682Z,8.94
2024-01-31T22:54:20.900Z,8.99
2024-01-31T22:56:55.474Z,9.06
2024-01-31T22:59:28.739Z,8.96
2024-01-31T23:02:01.930Z,8.99
2024-01-31T23:04:35.143Z,8.97
2024-01-31T23:07:09.078Z,8.99
2024-01-31T23:09:42.671Z,9.04
2024-01-31T23:12:20.450Z,9.07
2024-01-31T23:14:54.966Z,9.02
2024-01-31T23:17:28.289Z,8.97
2024-01-31T23:20:01.628Z,9.03
2024-01-31T23:22:37.313Z,9.09
2024-01-31T23:25:10.646Z,9.09
2024-01-31T23:27:45.152Z,9.10
2024-01-31T23:30:18.731Z,9.07
2024-01-31T23:32:52.245Z,9.11
2024-01-31T23:35:25.497Z,9.09
2024-01-31T23:37:58.679Z,9.17
2024-01-31T23:40:31.804Z,9.31
2024-01-31T23:43:06.485Z,9.40
2024-01-31T23:45:39.667Z,9.37
2024-01-31T23:48:13.000Z,9.31
2024-01-31T23:50:46.246Z,9.38
2024-01-31T23:53:19.863Z,9.34
2024-01-31T23:55:53.558Z,9.38
2024-01-31T23:58:27.981Z,9.45
